Indian Mills, New Jersey
Current Conditions -  °F | °C
As of 9:54 PM on Friday 21 Nov 2014 (Local Time) from KVAY Reporting Station
Clear Clear  
Wind Chill: 25°   Ceiling: Unl
Heat Index: 30°   Visibility: 10mi
Dew Point: 10°   Wind: 5mph
Humidity: 43%   Direction: 240°WSW
Pressure: 30.53"   Gusts: NA
Location:  39.7955°N, 74.6301°W
Report Text: KVAY 220254Z AUTO 24004KT 10SM CLR M01/M12 A3053 RMK AO2 SLP338 T10111122 53008
Loading
Personal Weather Stations






























Interactive Weather Map New forecast layout! Learn more

10-Day Weather Forecast

Advertisements
Track Severe Weather on mobile